sensor_id;sensor_type;location;lat;lon;timestamp;temperature;humidity
29575;DHT22;16507;51.046;6.406;2023-06-10T00:02:05;17.40;99.90
29575;DHT22;16507;51.046;6.406;2023-06-10T00:04:31;17.30;99.90
29575;DHT22;16507;51.046;6.406;2023-06-10T00:06:56;17.20;99.90
29575;DHT22;16507;51.046;6.406;2023-06-10T00:09:22;17.10;99.90
29575;DHT22;16507;51.046;6.406;2023-06-10T00:11:48;17.00;99.90
29575;DHT22;16507;51.046;6.406;2023-06-10T00:14:14;16.90;99.90
29575;DHT22;16507;51.046;6.406;2023-06-10T00:16:43;16.80;99.90
29575;DHT22;16507;51.046;6.406;2023-06-10T00:19:10;16.80;99.90
29575;DHT22;16507;51.046;6.406;2023-06-10T00:21:39;16.70;99.90
29575;DHT22;16507;51.046;6.406;2023-06-10T00:24:10;16.60;99.90
29575;DHT22;16507;51.046;6.406;2023-06-10T00:26:38;16.60;99.90
29575;DHT22;16507;51.046;6.406;2023-06-10T00:29:03;16.50;99.90
29575;DHT22;16507;51.046;6.406;2023-06-10T00:31:29;16.50;99.90
29575;DHT22;16507;51.046;6.406;2023-06-10T00:33:55;16.40;99.90
29575;DHT22;16507;51.046;6.406;2023-06-10T00:36:21;16.40;99.90
29575;DHT22;16507;51.046;6.406;2023-06-10T00:38:47;16.40;99.90
29575;DHT22;16507;51.046;6.406;2023-06-10T00:41:13;16.40;99.90
29575;DHT22;16507;51.046;6.406;2023-06-10T00:43:38;16.30;99.90
29575;DHT22;16507;51.046;6.406;2023-06-10T00:46:04;16.20;99.90
29575;DHT22;16507;51.046;6.406;2023-06-10T00:48:30;16.20;99.90
29575;DHT22;16507;51.046;6.406;2023-06-10T00:50:56;16.10;99.90
29575;DHT22;16507;51.046;6.406;2023-06-10T00:53:22;16.10;99.90
29575;DHT22;16507;51.046;6.406;2023-06-10T00:55:48;16.00;99.90
29575;DHT22;16507;51.046;6.406;2023-06-10T00:58:14;16.00;99.90
29575;DHT22;16507;51.046;6.406;2023-06-10T01:00:41;15.90;99.90
29575;DHT22;16507;51.046;6.406;2023-06-10T01:03:06;15.80;99.90
29575;DHT22;16507;51.046;6.406;2023-06-10T01:05:36;15.80;99.90
29575;DHT22;16507;51.046;6.406;2023-06-10T01:08:26;15.80;99.90
29575;DHT22;16507;51.046;6.406;2023-06-10T01:11:04;15.70;99.90
29575;DHT22;16507;51.046;6.406;2023-06-10T01:13:36;15.60;99.90
29575;DHT22;16507;51.046;6.406;2023-06-10T01:16:03;15.60;99.90
29575;DHT22;16507;51.046;6.406;2023-06-10T01:18:32;15.60;99.90
29575;DHT22;16507;51.046;6.406;2023-06-10T01:20:58;15.50;99.90
29575;DHT22;16507;51.046;6.406;2023-06-10T01:23:27;15.50;99.90
29575;DHT22;16507;51.046;6.406;2023-06-10T01:25:57;15.50;99.90
29575;DHT22;16507;51.046;6.406;2023-06-10T01:28:36;15.50;99.90
29575;DHT22;16507;51.046;6.406;2023-06-10T01:31:16;15.50;99.90
29575;DHT22;16507;51.046;6.406;2023-06-10T01:33:52;15.50;99.90
29575;DHT22;16507;51.046;6.406;2023-06-10T01:36:19;15.50;99.90
29575;DHT22;16507;51.046;6.406;2023-06-10T01:38:48;15.50;99.90
29575;DHT22;16507;51.046;6.406;2023-06-10T01:41:17;15.50;99.90
29575;DHT22;16507;51.046;6.406;2023-06-10T01:43:44;15.50;99.90
29575;DHT22;16507;51.046;6.406;2023-06-10T01:46:14;15.50;99.90
29575;DHT22;16507;51.046;6.406;2023-06-10T01:48:41;15.40;99.90
29575;DHT22;16507;51.046;6.406;2023-06-10T01:51:07;15.40;99.90
29575;DHT22;16507;51.046;6.406;2023-06-10T01:53:33;15.40;99.90
29575;DHT22;16507;51.046;6.406;2023-06-10T01:55:59;15.40;99.90
29575;DHT22;16507;51.046;6.406;2023-06-10T01:58:27;15.40;99.90
29575;DHT22;16507;51.046;6.406;2023-06-10T02:00:53;15.40;99.90
29575;DHT22;16507;51.046;6.406;2023-06-10T02:03:18;15.30;99.90
29575;DHT22;16507;51.046;6.406;2023-06-10T02:05:44;15.20;99.90
29575;DHT22;16507;51.046;6.406;2023-06-10T02:08:10;15.20;99.90
29575;DHT22;16507;51.046;6.406;2023-06-10T02:10:36;15.20;99.90
29575;DHT22;16507;51.046;6.406;2023-06-10T02:13:02;15.10;99.90
29575;DHT22;16507;51.046;6.406;2023-06-10T02:15:27;15.20;99.90
29575;DHT22;16507;51.046;6.406;2023-06-10T02:17:53;15.20;99.90
29575;DHT22;16507;51.046;6.406;2023-06-10T02:20:20;15.20;99.90
29575;DHT22;16507;51.046;6.406;2023-06-10T02:22:46;15.10;99.90
29575;DHT22;16507;51.046;6.406;2023-06-10T02:25:12;15.20;99.90
29575;DHT22;16507;51.046;6.406;2023-06-10T02:27:38;15.20;99.90
29575;DHT22;16507;51.046;6.406;2023-06-10T02:30:03;15.30;99.90
29575;DHT22;16507;51.046;6.406;2023-06-10T02:32:29;15.30;99.90
29575;DHT22;16507;51.046;6.406;2023-06-10T02:34:55;15.30;99.90
29575;DHT22;16507;51.046;6.406;2023-06-10T02:37:20;15.30;99.90
29575;DHT22;16507;51.046;6.406;2023-06-10T02:39:49;15.30;99.90
29575;DHT22;16507;51.046;6.406;2023-06-10T02:42:15;15.30;99.90
29575;DHT22;16507;51.046;6.406;2023-06-10T02:44:40;15.30;99.90
29575;DHT22;16507;51.046;6.406;2023-06-10T02:47:06;15.20;99.90
29575;DHT22;16507;51.046;6.406;2023-06-10T02:49:31;15.20;99.90
29575;DHT22;16507;51.046;6.406;2023-06-10T02:51:57;15.10;99.90
29575;DHT22;16507;51.046;6.406;2023-06-10T02:54:24;15.10;99.90
29575;DHT22;16507;51.046;6.406;2023-06-10T02:56:50;15.00;99.90
29575;DHT22;16507;51.046;6.406;2023-06-10T02:59:16;15.00;99.90
29575;DHT22;16507;51.046;6.406;2023-06-10T03:01:42;15.10;99.90
29575;DHT22;16507;51.046;6.406;2023-06-10T03:04:07;15.10;99.90
29575;DHT22;16507;51.046;6.406;2023-06-10T03:06:34;15.30;99.90
29575;DHT22;16507;51.046;6.406;2023-06-10T03:09:00;15.40;99.90
29575;DHT22;16507;51.046;6.406;2023-06-10T03:11:26;15.70;99.90
29575;DHT22;16507;51.046;6.406;2023-06-10T03:13:52;15.90;99.90
29575;DHT22;16507;51.046;6.406;2023-06-10T03:16:19;15.90;99.90
29575;DHT22;16507;51.046;6.406;2023-06-10T03:18:45;15.90;99.90
29575;DHT22;16507;51.046;6.406;2023-06-10T03:21:10;15.90;99.90
29575;DHT22;16507;51.046;6.406;2023-06-10T03:23:36;15.80;99.90
29575;DHT22;16507;51.046;6.406;2023-06-10T03:26:03;15.80;99.90
29575;DHT22;16507;51.046;6.406;2023-06-10T03:28:30;15.70;99.90
29575;DHT22;16507;51.046;6.406;2023-06-10T03:30:56;15.60;99.90
29575;DHT22;16507;51.046;6.406;2023-06-10T03:33:22;15.40;99.90
29575;DHT22;16507;51.046;6.406;2023-06-10T03:35:47;15.30;99.90
29575;DHT22;16507;51.046;6.406;2023-06-10T03:38:13;15.30;99.90
29575;DHT22;16507;51.046;6.406;2023-06-10T03:40:39;15.20;99.90
29575;DHT22;16507;51.046;6.406;2023-06-10T03:43:04;15.20;99.90
29575;DHT22;16507;51.046;6.406;2023-06-10T03:45:30;15.20;99.90
29575;DHT22;16507;51.046;6.406;2023-06-10T03:47:57;15.30;99.90
29575;DHT22;16507;51.046;6.406;2023-06-10T03:50:23;15.50;99.90
29575;DHT22;16507;51.046;6.406;2023-06-10T03:52:50;15.60;99.90
29575;DHT22;16507;51.046;6.406;2023-06-10T03:55:16;15.70;99.90
29575;DHT22;16507;51.046;6.406;2023-06-10T03:57:45;15.70;99.90
29575;DHT22;16507;51.046;6.406;2023-06-10T04:00:11;15.70;99.90
29575;DHT22;16507;51.046;6.406;2023-06-10T04:02:38;15.70;99.90
29575;DHT22;16507;51.046;6.406;2023-06-10T04:05:11;15.70;99.90
29575;DHT22;16507;51.046;6.406;2023-06-10T04:07:37;15.70;99.90
29575;DHT22;16507;51.046;6.406;2023-06-10T04:10:05;15.70;99.90
29575;DHT22;16507;51.046;6.406;2023-06-10T04:12:31;15.70;99.90
29575;DHT22;16507;51.046;6.406;2023-06-10T04:14:57;15.70;99.90
29575;DHT22;16507;51.046;6.406;2023-06-10T04:17:22;15.60;99.90
29575;DHT22;16507;51.046;6.406;2023-06-10T04:19:48;15.60;99.90
29575;DHT22;16507;51.046;6.406;2023-06-10T04:22:13;15.60;99.90
29575;DHT22;16507;51.046;6.406;2023-06-10T04:24:39;15.70;99.90
29575;DHT22;16507;51.046;6.406;2023-06-10T04:27:05;16.10;99.90
29575;DHT22;16507;51.046;6.406;2023-06-10T04:29:31;16.40;99.90
29575;DHT22;16507;51.046;6.406;2023-06-10T04:31:56;17.20;99.90
29575;DHT22;16507;51.046;6.406;2023-06-10T04:34:22;18.00;99.90
29575;DHT22;16507;51.046;6.406;2023-06-10T04:36:48;18.70;1.00
29575;DHT22;16507;51.046;6.406;2023-06-10T04:39:15;18.50;1.00
29575;DHT22;16507;51.046;6.406;2023-06-10T04:41:42;18.30;1.00
29575;DHT22;16507;51.046;6.406;2023-06-10T04:44:07;18.20;1.00
29575;DHT22;16507;51.046;6.406;2023-06-10T04:46:33;18.10;7.40
29575;DHT22;16507;51.046;6.406;2023-06-10T04:48:59;18.00;99.90
29575;DHT22;16507;51.046;6.406;2023-06-10T04:51:24;18.00;99.90
29575;DHT22;16507;51.046;6.406;2023-06-10T04:53:50;18.10;99.90
29575;DHT22;16507;51.046;6.406;2023-06-10T04:56:16;18.30;98.00
29575;DHT22;16507;51.046;6.406;2023-06-10T04:58:41;18.40;36.70
29575;DHT22;16507;51.046;6.406;2023-06-10T05:01:07;18.50;4.80
29575;DHT22;16507;51.046;6.406;2023-06-10T05:03:36;18.60;1.00
29575;DHT22;16507;51.046;6.406;2023-06-10T05:06:01;18.80;1.00
29575;DHT22;16507;51.046;6.406;2023-06-10T05:08:27;18.90;1.00
29575;DHT22;16507;51.046;6.406;2023-06-10T05:10:52;18.90;1.00
29575;DHT22;16507;51.046;6.406;2023-06-10T05:13:18;19.10;1.00
29575;DHT22;16507;51.046;6.406;2023-06-10T05:15:44;19.20;1.00
29575;DHT22;16507;51.046;6.406;2023-06-10T05:18:10;19.20;27.70
29575;DHT22;16507;51.046;6.406;2023-06-10T05:20:38;19.40;1.00
29575;DHT22;16507;51.046;6.406;2023-06-10T05:23:03;19.50;1.00
29575;DHT22;16507;51.046;6.406;2023-06-10T05:25:32;19.70;1.00
29575;DHT22;16507;51.046;6.406;2023-06-10T05:27:59;19.70;1.00
29575;DHT22;16507;51.046;6.406;2023-06-10T05:30:24;19.80;1.00
29575;DHT22;16507;51.046;6.406;2023-06-10T05:32:51;20.00;1.00
29575;DHT22;16507;51.046;6.406;2023-06-10T05:35:18;20.00;1.00
29575;DHT22;16507;51.046;6.406;2023-06-10T05:37:44;20.00;1.00
29575;DHT22;16507;51.046;6.406;2023-06-10T05:40:10;20.10;1.00
29575;DHT22;16507;51.046;6.406;2023-06-10T05:42:39;20.10;99.90
29575;DHT22;16507;51.046;6.406;2023-06-10T05:45:05;20.30;1.00
29575;DHT22;16507;51.046;6.406;2023-06-10T05:47:32;20.20;99.90
29575;DHT22;16507;51.046;6.406;2023-06-10T05:49:57;20.30;1.00
29575;DHT22;16507;51.046;6.406;2023-06-10T05:52:23;20.40;1.00
29575;DHT22;16507;51.046;6.406;2023-06-10T05:54:49;20.50;1.00
29575;DHT22;16507;51.046;6.406;2023-06-10T05:57:15;20.50;99.90
29575;DHT22;16507;51.046;6.406;2023-06-10T05:59:41;20.70;1.00
29575;DHT22;16507;51.046;6.406;2023-06-10T06:02:06;20.80;75.00
29575;DHT22;16507;51.046;6.406;2023-06-10T06:04:33;20.80;1.00
29575;DHT22;16507;51.046;6.406;2023-06-10T06:06:58;21.00;1.00
29575;DHT22;16507;51.046;6.406;2023-06-10T06:09:24;21.30;1.00
29575;DHT22;16507;51.046;6.406;2023-06-10T06:11:50;21.10;1.00
29575;DHT22;16507;51.046;6.406;2023-06-10T06:14:15;21.20;1.00
29575;DHT22;16507;51.046;6.406;2023-06-10T06:16:41;21.50;28.00
29575;DHT22;16507;51.046;6.406;2023-06-10T06:19:06;21.60;99.90
29575;DHT22;16507;51.046;6.406;2023-06-10T06:21:32;21.60;99.90
29575;DHT22;16507;51.046;6.406;2023-06-10T06:23:59;21.60;99.90
29575;DHT22;16507;51.046;6.406;2023-06-10T06:26:24;21.80;1.00
29575;DHT22;16507;51.046;6.406;2023-06-10T06:28:50;21.80;1.00
29575;DHT22;16507;51.046;6.406;2023-06-10T06:31:17;21.90;93.40
29575;DHT22;16507;51.046;6.406;2023-06-10T06:33:43;21.90;99.90
29575;DHT22;16507;51.046;6.406;2023-06-10T06:36:08;21.90;1.00
29575;DHT22;16507;51.046;6.406;2023-06-10T06:38:34;22.00;1.00
29575;DHT22;16507;51.046;6.406;2023-06-10T06:41:00;21.70;1.00
29575;DHT22;16507;51.046;6.406;2023-06-10T06:43:29;22.10;1.00
29575;DHT22;16507;51.046;6.406;2023-06-10T06:45:56;22.20;99.90
29575;DHT22;16507;51.046;6.406;2023-06-10T06:48:22;22.30;15.80
29575;DHT22;16507;51.046;6.406;2023-06-10T06:50:48;22.40;99.90
29575;DHT22;16507;51.046;6.406;2023-06-10T06:53:13;22.40;99.90
29575;DHT22;16507;51.046;6.406;2023-06-10T06:55:39;22.50;99.90
29575;DHT22;16507;51.046;6.406;2023-06-10T06:58:04;22.70;99.90
29575;DHT22;16507;51.046;6.406;2023-06-10T07:00:31;22.70;95.90
29575;DHT22;16507;51.046;6.406;2023-06-10T07:02:56;22.90;99.90
29575;DHT22;16507;51.046;6.406;2023-06-10T07:05:23;23.10;78.80
29575;DHT22;16507;51.046;6.406;2023-06-10T07:07:48;23.10;98.00
29575;DHT22;16507;51.046;6.406;2023-06-10T07:10:26;23.30;95.10
29575;DHT22;16507;51.046;6.406;2023-06-10T07:12:52;23.30;82.90
29575;DHT22;16507;51.046;6.406;2023-06-10T07:15:18;23.50;99.90
29575;DHT22;16507;51.046;6.406;2023-06-10T07:17:44;23.80;91.70
29575;DHT22;16507;51.046;6.406;2023-06-10T07:20:10;23.70;81.10
29575;DHT22;16507;51.046;6.406;2023-06-10T07:22:35;24.00;77.30
29575;DHT22;16507;51.046;6.406;2023-06-10T07:25:01;24.20;66.80
29575;DHT22;16507;51.046;6.406;2023-06-10T07:27:27;24.40;66.30
29575;DHT22;16507;51.046;6.406;2023-06-10T07:29:53;24.60;65.90
29575;DHT22;16507;51.046;6.406;2023-06-10T07:32:19;24.90;45.40
29575;DHT22;16507;51.046;6.406;2023-06-10T07:34:46;24.90;44.10
29575;DHT22;16507;51.046;6.406;2023-06-10T07:37:11;25.10;48.60
29575;DHT22;16507;51.046;6.406;2023-06-10T07:39:37;25.20;43.30
29575;DHT22;16507;51.046;6.406;2023-06-10T07:42:03;25.40;43.00
29575;DHT22;16507;51.046;6.406;2023-06-10T07:44:28;25.40;35.00
29575;DHT22;16507;51.046;6.406;2023-06-10T07:46:54;25.40;35.40
29575;DHT22;16507;51.046;6.406;2023-06-10T07:49:20;25.50;42.70
29575;DHT22;16507;51.046;6.406;2023-06-10T07:51:45;25.40;31.80
29575;DHT22;16507;51.046;6.406;2023-06-10T07:54:11;25.20;30.70
29575;DHT22;16507;51.046;6.406;2023-06-10T07:56:38;25.40;46.60
29575;DHT22;16507;51.046;6.406;2023-06-10T07:59:03;25.60;34.70
29575;DHT22;16507;51.046;6.406;2023-06-10T08:01:29;25.60;30.30
29575;DHT22;16507;51.046;6.406;2023-06-10T08:03:55;25.70;31.30
29575;DHT22;16507;51.046;6.406;2023-06-10T08:06:21;25.50;28.00
29575;DHT22;16507;51.046;6.406;2023-06-10T08:08:46;25.50;31.60
29575;DHT22;16507;51.046;6.406;2023-06-10T08:11:12;25.50;29.90
29575;DHT22;16507;51.046;6.406;2023-06-10T08:13:38;25.60;31.70
29575;DHT22;16507;51.046;6.406;2023-06-10T08:16:04;25.50;30.10
29575;DHT22;16507;51.046;6.406;2023-06-10T08:18:30;25.80;36.60
29575;DHT22;16507;51.046;6.406;2023-06-10T08:20:55;26.20;36.00
29575;DHT22;16507;51.046;6.406;2023-06-10T08:23:21;26.20;24.30
29575;DHT22;16507;51.046;6.406;2023-06-10T08:25:47;26.00;31.80
29575;DHT22;16507;51.046;6.406;2023-06-10T08:28:12;26.20;30.80
29575;DHT22;16507;51.046;6.406;2023-06-10T08:30:38;26.50;30.20
29575;DHT22;16507;51.046;6.406;2023-06-10T08:33:03;26.60;24.40
29575;DHT22;16507;51.046;6.406;2023-06-10T08:35:29;26.90;27.20
29575;DHT22;16507;51.046;6.406;2023-06-10T08:37:55;27.00;25.70
29575;DHT22;16507;51.046;6.406;2023-06-10T08:40:21;26.70;27.30
29575;DHT22;16507;51.046;6.406;2023-06-10T08:42:57;26.80;31.80
29575;DHT22;16507;51.046;6.406;2023-06-10T08:45:29;26.60;23.30
29575;DHT22;16507;51.046;6.406;2023-06-10T08:47:57;26.20;22.10
29575;DHT22;16507;51.046;6.406;2023-06-10T08:50:23;26.50;22.20
29575;DHT22;16507;51.046;6.406;2023-06-10T08:52:50;26.60;19.50
29575;DHT22;16507;51.046;6.406;2023-06-10T08:55:29;26.70;25.80
29575;DHT22;16507;51.046;6.406;2023-06-10T08:57:55;26.60;24.40
29575;DHT22;16507;51.046;6.406;2023-06-10T09:00:25;26.30;24.20
29575;DHT22;16507;51.046;6.406;2023-06-10T09:02:51;26.60;27.20
29575;DHT22;16507;51.046;6.406;2023-06-10T09:05:19;26.50;21.40
29575;DHT22;16507;51.046;6.406;2023-06-10T09:07:48;26.70;26.60
29575;DHT22;16507;51.046;6.406;2023-06-10T09:10:14;26.70;25.50
29575;DHT22;16507;51.046;6.406;2023-06-10T09:12:39;26.70;24.40
29575;DHT22;16507;51.046;6.406;2023-06-10T09:15:06;26.50;22.80
29575;DHT22;16507;51.046;6.406;2023-06-10T09:17:32;26.50;23.00
29575;DHT22;16507;51.046;6.406;2023-06-10T09:19:59;26.40;22.40
29575;DHT22;16507;51.046;6.406;2023-06-10T09:22:25;26.70;24.00
29575;DHT22;16507;51.046;6.406;2023-06-10T09:25:01;26.90;22.30
29575;DHT22;16507;51.046;6.406;2023-06-10T09:27:30;27.10;21.20
29575;DHT22;16507;51.046;6.406;2023-06-10T09:29:56;27.40;21.70
29575;DHT22;16507;51.046;6.406;2023-06-10T09:32:23;27.80;19.90
29575;DHT22;16507;51.046;6.406;2023-06-10T09:34:49;28.00;21.00
29575;DHT22;16507;51.046;6.406;2023-06-10T09:37:25;27.80;15.20
29575;DHT22;16507;51.046;6.406;2023-06-10T09:40:06;27.30;13.10
29575;DHT22;16507;51.046;6.406;2023-06-10T09:42:34;27.50;20.60
29575;DHT22;16507;51.046;6.406;2023-06-10T09:45:01;27.80;19.50
29575;DHT22;16507;51.046;6.406;2023-06-10T09:47:27;28.00;17.10
29575;DHT22;16507;51.046;6.406;2023-06-10T09:49:52;27.90;10.10
29575;DHT22;16507;51.046;6.406;2023-06-10T09:52:26;27.80;14.40
29575;DHT22;16507;51.046;6.406;2023-06-10T09:54:52;27.70;17.10
29575;DHT22;16507;51.046;6.406;2023-06-10T09:57:19;28.00;13.00
29575;DHT22;16507;51.046;6.406;2023-06-10T09:59:45;27.90;11.50
29575;DHT22;16507;51.046;6.406;2023-06-10T10:02:15;28.00;6.30
29575;DHT22;16507;51.046;6.406;2023-06-10T10:04:41;28.20;11.30
29575;DHT22;16507;51.046;6.406;2023-06-10T10:07:10;28.30;13.30
29575;DHT22;16507;51.046;6.406;2023-06-10T10:09:41;28.00;5.50
29575;DHT22;16507;51.046;6.406;2023-06-10T10:12:11;28.20;8.60
29575;DHT22;16507;51.046;6.406;2023-06-10T10:14:38;28.20;10.70
29575;DHT22;16507;51.046;6.406;2023-06-10T10:17:07;28.00;8.60
29575;DHT22;16507;51.046;6.406;2023-06-10T10:19:40;28.10;7.30
29575;DHT22;16507;51.046;6.406;2023-06-10T10:22:15;28.30;7.00
29575;DHT22;16507;51.046;6.406;2023-06-10T10:24:53;28.50;20.40
29575;DHT22;16507;51.046;6.406;2023-06-10T10:27:25;28.80;11.20
29575;DHT22;16507;51.046;6.406;2023-06-10T10:29:52;28.70;6.90
29575;DHT22;16507;51.046;6.406;2023-06-10T10:32:38;28.60;8.60
29575;DHT22;16507;51.046;6.406;2023-06-10T10:35:12;28.70;4.00
29575;DHT22;16507;51.046;6.406;2023-06-10T10:37:37;28.60;3.50
29575;DHT22;16507;51.046;6.406;2023-06-10T10:40:06;28.80;6.50
29575;DHT22;16507;51.046;6.406;2023-06-10T10:42:35;28.80;5.10
29575;DHT22;16507;51.046;6.406;2023-06-10T10:45:02;29.40;8.90
29575;DHT22;16507;51.046;6.406;2023-06-10T10:47:28;29.90;3.10
29575;DHT22;16507;51.046;6.406;2023-06-10T10:49:56;29.30;1.00
29575;DHT22;16507;51.046;6.406;2023-06-10T10:52:27;28.90;1.00
29575;DHT22;16507;51.046;6.406;2023-06-10T10:54:54;29.50;9.50
29575;DHT22;16507;51.046;6.406;2023-06-10T10:57:23;29.90;3.20
29575;DHT22;16507;51.046;6.406;2023-06-10T11:02:18;29.70;1.60
29575;DHT22;16507;51.046;6.406;2023-06-10T11:04:47;29.90;1.00
29575;DHT22;16507;51.046;6.406;2023-06-10T11:07:13;30.00;1.00
29575;DHT22;16507;51.046;6.406;2023-06-10T11:10:07;29.80;1.00
29575;DHT22;16507;51.046;6.406;2023-06-10T11:15:11;30.40;1.00
29575;DHT22;16507;51.046;6.406;2023-06-10T11:17:37;30.30;1.00
29575;DHT22;16507;51.046;6.406;2023-06-10T11:20:03;30.50;1.00
29575;DHT22;16507;51.046;6.406;2023-06-10T11:22:29;29.90;1.00
29575;DHT22;16507;51.046;6.406;2023-06-10T11:24:54;30.40;1.00
29575;DHT22;16507;51.046;6.406;2023-06-10T11:27:23;30.80;1.00
29575;DHT22;16507;51.046;6.406;2023-06-10T11:32:30;31.50;1.00
29575;DHT22;16507;51.046;6.406;2023-06-10T11:34:59;31.60;1.00
29575;DHT22;16507;51.046;6.406;2023-06-10T11:37:25;31.70;1.00
29575;DHT22;16507;51.046;6.406;2023-06-10T11:39:57;32.10;1.00
29575;DHT22;16507;51.046;6.406;2023-06-10T11:42:24;32.00;1.00
29575;DHT22;16507;51.046;6.406;2023-06-10T11:44:51;31.30;1.00
29575;DHT22;16507;51.046;6.406;2023-06-10T11:47:17;30.70;1.00
29575;DHT22;16507;51.046;6.406;2023-06-10T11:49:43;31.00;1.00
29575;DHT22;16507;51.046;6.406;2023-06-10T11:52:09;31.20;1.00
29575;DHT22;16507;51.046;6.406;2023-06-10T11:54:36;31.20;1.00
29575;DHT22;16507;51.046;6.406;2023-06-10T11:57:01;31.00;1.00
29575;DHT22;16507;51.046;6.406;2023-06-10T11:59:29;30.40;1.00
29575;DHT22;16507;51.046;6.406;2023-06-10T12:01:55;30.00;1.00
29575;DHT22;16507;51.046;6.406;2023-06-10T12:04:21;30.30;1.00
29575;DHT22;16507;51.046;6.406;2023-06-10T12:06:52;30.40;1.00
29575;DHT22;16507;51.046;6.406;2023-06-10T12:09:30;30.20;1.00
29575;DHT22;16507;51.046;6.406;2023-06-10T12:12:00;29.80;1.00
29575;DHT22;16507;51.046;6.406;2023-06-10T12:14:55;29.50;1.00
29575;DHT22;16507;51.046;6.406;2023-06-10T12:20:01;29.00;1.00
29575;DHT22;16507;51.046;6.406;2023-06-10T12:22:39;29.00;1.00
29575;DHT22;16507;51.046;6.406;2023-06-10T12:25:06;29.10;1.00
29575;DHT22;16507;51.046;6.406;2023-06-10T12:27:33;29.00;1.00
29575;DHT22;16507;51.046;6.406;2023-06-10T12:30:02;29.00;1.00
29575;DHT22;16507;51.046;6.406;2023-06-10T12:32:42;28.80;1.00
29575;DHT22;16507;51.046;6.406;2023-06-10T12:35:09;28.80;1.00
29575;DHT22;16507;51.046;6.406;2023-06-10T12:37:35;29.00;1.00
29575;DHT22;16507;51.046;6.406;2023-06-10T12:40:03;28.80;1.00
29575;DHT22;16507;51.046;6.406;2023-06-10T12:42:30;29.10;1.00
29575;DHT22;16507;51.046;6.406;2023-06-10T12:44:56;29.60;1.00
29575;DHT22;16507;51.046;6.406;2023-06-10T12:47:36;30.10;1.00
29575;DHT22;16507;51.046;6.406;2023-06-10T12:50:03;29.80;1.00
29575;DHT22;16507;51.046;6.406;2023-06-10T12:52:32;29.50;1.00
29575;DHT22;16507;51.046;6.406;2023-06-10T12:54:58;30.10;1.00
29575;DHT22;16507;51.046;6.406;2023-06-10T12:57:24;30.50;1.00
29575;DHT22;16507;51.046;6.406;2023-06-10T12:59:50;30.60;1.00
29575;DHT22;16507;51.046;6.406;2023-06-10T13:02:21;31.20;1.00
29575;DHT22;16507;51.046;6.406;2023-06-10T13:04:49;31.00;1.00
29575;DHT22;16507;51.046;6.406;2023-06-10T13:07:15;31.20;1.00
29575;DHT22;16507;51.046;6.406;2023-06-10T13:09:41;32.70;1.00
29575;DHT22;16507;51.046;6.406;2023-06-10T13:12:07;35.00;1.00
29575;DHT22;16507;51.046;6.406;2023-06-10T13:14:33;35.90;1.00
29575;DHT22;16507;51.046;6.406;2023-06-10T13:16:59;35.10;1.00
29575;DHT22;16507;51.046;6.406;2023-06-10T13:19:24;34.50;1.00
29575;DHT22;16507;51.046;6.406;2023-06-10T13:21:51;33.50;1.00
29575;DHT22;16507;51.046;6.406;2023-06-10T13:24:17;33.00;1.00
29575;DHT22;16507;51.046;6.406;2023-06-10T13:26:42;31.50;1.00
29575;DHT22;16507;51.046;6.406;2023-06-10T13:29:08;30.00;1.00
29575;DHT22;16507;51.046;6.406;2023-06-10T13:31:39;29.50;1.00
29575;DHT22;16507;51.046;6.406;2023-06-10T13:34:05;28.90;1.00
29575;DHT22;16507;51.046;6.406;2023-06-10T13:36:31;28.60;1.00
29575;DHT22;16507;51.046;6.406;2023-06-10T13:38:57;28.80;1.00
29575;DHT22;16507;51.046;6.406;2023-06-10T13:41:23;29.00;1.00
29575;DHT22;16507;51.046;6.406;2023-06-10T13:43:49;29.90;1.00
29575;DHT22;16507;51.046;6.406;2023-06-10T13:46:15;29.80;1.00
29575;DHT22;16507;51.046;6.406;2023-06-10T13:48:41;29.70;1.00
29575;DHT22;16507;51.046;6.406;2023-06-10T13:51:07;29.90;1.00
29575;DHT22;16507;51.046;6.406;2023-06-10T13:53:34;30.30;1.00
29575;DHT22;16507;51.046;6.406;2023-06-10T13:56:00;30.20;1.00
29575;DHT22;16507;51.046;6.406;2023-06-10T13:58:25;30.30;1.00
29575;DHT22;16507;51.046;6.406;2023-06-10T14:00:51;30.00;1.00
29575;DHT22;16507;51.046;6.406;2023-06-10T14:03:16;30.30;1.00
29575;DHT22;16507;51.046;6.406;2023-06-10T14:05:42;30.30;1.00
29575;DHT22;16507;51.046;6.406;2023-06-10T14:08:08;29.80;1.00
29575;DHT22;16507;51.046;6.406;2023-06-10T14:10:33;29.50;1.00
29575;DHT22;16507;51.046;6.406;2023-06-10T14:12:59;29.50;1.00
29575;DHT22;16507;51.046;6.406;2023-06-10T14:15:25;29.30;1.00
29575;DHT22;16507;51.046;6.406;2023-06-10T14:17:51;29.30;1.00
29575;DHT22;16507;51.046;6.406;2023-06-10T14:20:17;29.30;1.00
29575;DHT22;16507;51.046;6.406;2023-06-10T14:22:42;29.30;1.00
29575;DHT22;16507;51.046;6.406;2023-06-10T14:25:08;29.80;1.00
29575;DHT22;16507;51.046;6.406;2023-06-10T14:27:34;31.10;1.00
29575;DHT22;16507;51.046;6.406;2023-06-10T14:30:03;31.90;1.00
29575;DHT22;16507;51.046;6.406;2023-06-10T14:32:29;32.30;1.00
29575;DHT22;16507;51.046;6.406;2023-06-10T14:34:54;32.10;1.00
29575;DHT22;16507;51.046;6.406;2023-06-10T14:37:20;31.80;1.00
29575;DHT22;16507;51.046;6.406;2023-06-10T14:39:50;30.40;1.00
29575;DHT22;16507;51.046;6.406;2023-06-10T14:42:15;29.80;1.00
29575;DHT22;16507;51.046;6.406;2023-06-10T14:44:41;29.40;1.00
29575;DHT22;16507;51.046;6.406;2023-06-10T14:47:07;29.80;1.00
29575;DHT22;16507;51.046;6.406;2023-06-10T14:49:32;29.90;1.00
29575;DHT22;16507;51.046;6.406;2023-06-10T14:51:58;29.90;1.00
29575;DHT22;16507;51.046;6.406;2023-06-10T14:54:23;29.80;1.00
29575;DHT22;16507;51.046;6.406;2023-06-10T14:56:49;29.70;1.00
29575;DHT22;16507;51.046;6.406;2023-06-10T14:59:15;29.80;1.00
29575;DHT22;16507;51.046;6.406;2023-06-10T15:01:41;30.10;1.00
29575;DHT22;16507;51.046;6.406;2023-06-10T15:04:06;31.00;1.00
29575;DHT22;16507;51.046;6.406;2023-06-10T15:06:32;31.10;1.00
29575;DHT22;16507;51.046;6.406;2023-06-10T15:08:57;31.10;1.00
29575;DHT22;16507;51.046;6.406;2023-06-10T15:11:26;31.10;1.00
29575;DHT22;16507;51.046;6.406;2023-06-10T15:13:51;30.70;1.00
29575;DHT22;16507;51.046;6.406;2023-06-10T15:16:20;30.50;1.00
29575;DHT22;16507;51.046;6.406;2023-06-10T15:18:46;31.10;1.00
29575;DHT22;16507;51.046;6.406;2023-06-10T15:21:11;31.00;1.00
29575;DHT22;16507;51.046;6.406;2023-06-10T15:23:37;30.80;1.00
29575;DHT22;16507;51.046;6.406;2023-06-10T15:26:02;30.20;1.00
29575;DHT22;16507;51.046;6.406;2023-06-10T15:28:28;30.00;1.00
29575;DHT22;16507;51.046;6.406;2023-06-10T15:30:54;29.10;1.00
29575;DHT22;16507;51.046;6.406;2023-06-10T15:33:19;28.70;1.00
29575;DHT22;16507;51.046;6.406;2023-06-10T15:35:45;28.90;1.00
29575;DHT22;16507;51.046;6.406;2023-06-10T15:38:11;29.40;1.00
29575;DHT22;16507;51.046;6.406;2023-06-10T15:40:36;29.40;1.00
29575;DHT22;16507;51.046;6.406;2023-06-10T15:43:02;29.50;1.00
29575;DHT22;16507;51.046;6.406;2023-06-10T15:45:28;30.00;1.00
29575;DHT22;16507;51.046;6.406;2023-06-10T15:47:54;30.20;1.00